createdAt,value
2023-05-01T00:01:40.354Z,100796.53
2023-05-01T00:04:06.929Z,100874.56
2023-05-01T00:06:33.983Z,100917.63
2023-05-01T00:09:00.407Z,100853.31
2023-05-01T00:11:26.844Z,100946.19
2023-05-01T00:13:54.417Z,101016.00
2023-05-01T00:16:20.996Z,100923.94
2023-05-01T00:18:47.457Z,101004.03
2023-05-01T00:21:13.893Z,100999.56
2023-05-01T00:23:40.317Z,100995.75
2023-05-01T00:26:07.498Z,101015.44
2023-05-01T00:28:33.882Z,100897.84
2023-05-01T00:31:00.297Z,100866.03
2023-05-01T00:33:26.747Z,100979.31
2023-05-01T00:35:53.109Z,100893.28
2023-05-01T00:38:19.527Z,100966.31
2023-05-01T00:40:46.998Z,100943.84
2023-05-01T00:43:13.740Z,100958.53
2023-05-01T00:45:43.271Z,100984.41
2023-05-01T00:48:10.661Z,100981.03
2023-05-01T00:50:37.664Z,100969.97
2023-05-01T00:53:04.269Z,100852.50
2023-05-01T00:55:33.008Z,100960.16
2023-05-01T00:58:01.004Z,100969.53
2023-05-01T01:00:27.477Z,100837.47
2023-05-01T01:02:53.918Z,100914.03
2023-05-01T01:05:24.385Z,100956.16
2023-05-01T01:08:10.996Z,100772.19
2023-05-01T01:10:49.523Z,100951.19
2023-05-01T01:13:30.690Z,100953.03
2023-05-01T01:16:15.849Z,100935.09
2023-05-01T01:18:53.696Z,100946.25
2023-05-01T01:21:27.567Z,100877.34
2023-05-01T01:24:18.979Z,100942.91
2023-05-01T01:27:10.225Z,100943.84
2023-05-01T01:30:32.557Z,100937.72
2023-05-01T01:33:32.892Z,100932.28
2023-05-01T01:36:06.922Z,100930.44
2023-05-01T01:38:42.715Z,100905.16
2023-05-01T01:41:14.695Z,100806.09
2023-05-01T01:43:47.618Z,100772.66
2023-05-01T01:46:17.640Z,100878.28
2023-05-01T01:48:48.888Z,100758.94
2023-05-01T01:51:19.126Z,100915.47
2023-05-01T01:53:50.434Z,100751.09
2023-05-01T01:56:18.634Z,100904.88
2023-05-01T01:58:46.096Z,100895.63
2023-05-01T02:01:15.121Z,100776.63
2023-05-01T02:03:44.076Z,100884.00
2023-05-01T02:06:12.923Z,100893.88
2023-05-01T02:08:42.437Z,100861.16
2023-05-01T02:11:11.178Z,100808.00
2023-05-01T02:13:39.033Z,100771.84
2023-05-01T02:16:07.058Z,100763.50
2023-05-01T02:18:34.554Z,100727.28
2023-05-01T02:21:03.308Z,100854.78
2023-05-01T02:23:31.767Z,100776.56
2023-05-01T02:26:03.006Z,100859.94
2023-05-01T02:28:30.164Z,100873.72
2023-05-01T02:30:57.497Z,100768.72
2023-05-01T02:33:23.949Z,100841.06
2023-05-01T02:35:50.594Z,100866.13
2023-05-01T02:38:17.368Z,100718.13
2023-05-01T02:40:47.185Z,100714.75
2023-05-01T02:43:18.302Z,100746.50
2023-05-01T02:45:45.276Z,100733.00
2023-05-01T02:48:15.846Z,100702.63
2023-05-01T02:50:44.525Z,100807.66
2023-05-01T02:53:13.043Z,100832.47
2023-05-01T02:55:39.633Z,100754.19
2023-05-01T02:58:06.247Z,100693.25
2023-05-01T03:00:32.676Z,100687.38
2023-05-01T03:02:59.134Z,100694.59
2023-05-01T03:05:25.642Z,100657.81
2023-05-01T03:07:53.246Z,100694.00
2023-05-01T03:10:19.706Z,100720.59
2023-05-01T03:12:46.047Z,100601.72
2023-05-01T03:15:13.224Z,100813.00
2023-05-01T03:17:39.644Z,100806.56
2023-05-01T03:20:09.417Z,100769.59
2023-05-01T03:22:36.062Z,100744.81
2023-05-01T03:25:04.271Z,100670.03
2023-05-01T03:27:30.982Z,100773.13
2023-05-01T03:29:57.571Z,100656.16
2023-05-01T03:32:24.314Z,100785.34
2023-05-01T03:34:50.775Z,100701.03
2023-05-01T03:37:17.182Z,100787.53
2023-05-01T03:39:43.562Z,100697.47
2023-05-01T03:42:09.985Z,100644.28
2023-05-01T03:44:36.951Z,100648.84
2023-05-01T03:47:03.449Z,100700.38
2023-05-01T03:49:29.834Z,100763.72
2023-05-01T03:51:56.630Z,100768.75
2023-05-01T03:54:23.158Z,100696.25
2023-05-01T03:56:49.473Z,100759.88
2023-05-01T03:59:15.852Z,100682.25
2023-05-01T04:01:42.345Z,100682.16
2023-05-01T04:04:09.045Z,100744.31
2023-05-01T04:06:36.169Z,100649.66
2023-05-01T04:09:03.670Z,100733.16
2023-05-01T04:11:30.022Z,100766.88
2023-05-01T04:13:56.473Z,100750.09
2023-05-01T04:16:22.938Z,100652.25
2023-05-01T04:18:49.455Z,100739.88
2023-05-01T04:21:17.542Z,100746.56
2023-05-01T04:23:44.076Z,100729.31
2023-05-01T04:26:10.678Z,100641.44
2023-05-01T04:28:37.173Z,100664.66
2023-05-01T04:31:03.962Z,100744.63
2023-05-01T04:33:30.447Z,100654.97
2023-05-01T04:35:56.906Z,100753.81
2023-05-01T04:38:23.571Z,100571.44
2023-05-01T04:40:49.881Z,100759.72
2023-05-01T04:43:16.364Z,100775.00
2023-05-01T04:45:42.882Z,100643.88
2023-05-01T04:48:09.407Z,100672.16
2023-05-01T04:50:35.804Z,100764.06
2023-05-01T04:53:02.155Z,100726.03
2023-05-01T04:55:30.902Z,100754.38
2023-05-01T04:57:57.694Z,100768.75
2023-05-01T05:00:24.211Z,100716.78
2023-05-01T05:02:50.616Z,100649.72
2023-05-01T05:05:16.996Z,100762.75
2023-05-01T05:07:43.315Z,100761.69
2023-05-01T05:10:09.932Z,100647.88
2023-05-01T05:12:36.323Z,100714.47
2023-05-01T05:15:03.219Z,100736.00
2023-05-01T05:17:29.614Z,100606.66
2023-05-01T05:19:56.180Z,100740.47
2023-05-01T05:22:23.572Z,100726.50
2023-05-01T05:24:55.633Z,100755.94
2023-05-01T05:27:22.048Z,100755.00
2023-05-01T05:29:48.366Z,100684.31
2023-05-01T05:32:14.807Z,100739.31
2023-05-01T05:34:41.221Z,100708.25
2023-05-01T05:37:08.322Z,100740.84
2023-05-01T05:39:35.080Z,100740.84
2023-05-01T05:42:01.462Z,100641.34
2023-05-01T05:44:27.852Z,100656.59
2023-05-01T05:46:54.200Z,100746.09
2023-05-01T05:49:20.538Z,100757.31
2023-05-01T05:51:46.878Z,100748.25
2023-05-01T05:54:13.202Z,100753.41
2023-05-01T05:56:39.541Z,100721.09
2023-05-01T05:59:06.487Z,100749.34
2023-05-01T06:01:32.883Z,100752.03
2023-05-01T06:03:59.258Z,100675.84
2023-05-01T06:06:26.287Z,100732.50
2023-05-01T06:08:52.825Z,100739.88
2023-05-01T06:11:21.433Z,100730.75
2023-05-01T06:13:47.823Z,100632.75
2023-05-01T06:16:15.175Z,100712.97
2023-05-01T06:18:42.867Z,100768.19
2023-05-01T06:21:10.297Z,100715.16
2023-05-01T06:23:37.105Z,100747.34
2023-05-01T06:26:03.650Z,100725.53
2023-05-01T06:28:30.030Z,100725.94
2023-05-01T06:30:57.706Z,100698.25
2023-05-01T06:33:24.095Z,100634.41
2023-05-01T06:35:50.761Z,100558.41
2023-05-01T06:38:17.241Z,100627.22
2023-05-01T06:40:46.903Z,100697.75
2023-05-01T06:43:13.354Z,100743.22
2023-05-01T06:45:41.244Z,100576.81
2023-05-01T06:48:07.721Z,100639.50
2023-05-01T06:50:34.179Z,100609.47
2023-05-01T06:53:02.570Z,100612.63
2023-05-01T06:55:34.540Z,100723.13
2023-05-01T06:58:04.868Z,100675.91
2023-05-01T07:00:41.863Z,100711.84
2023-05-01T07:03:10.785Z,100650.19
2023-05-01T07:05:37.290Z,100621.34
2023-05-01T07:08:03.813Z,100632.13
2023-05-01T07:10:32.934Z,100587.66
2023-05-01T07:12:59.877Z,100639.31
2023-05-01T07:15:26.319Z,100673.47
2023-05-01T07:17:52.755Z,100612.91
2023-05-01T07:20:19.210Z,100635.56
2023-05-01T07:22:45.846Z,100706.09
2023-05-01T07:25:12.191Z,100657.00
2023-05-01T07:27:38.593Z,100608.25
2023-05-01T07:30:05.741Z,100619.69
2023-05-01T07:32:33.000Z,100660.81
2023-05-01T07:34:59.622Z,100733.25
2023-05-01T07:37:26.994Z,100757.59
2023-05-01T07:39:53.355Z,100765.19
2023-05-01T07:42:19.770Z,100733.03
2023-05-01T07:44:46.158Z,100672.41
2023-05-01T07:47:12.527Z,100618.28
2023-05-01T07:49:38.964Z,100655.47
2023-05-01T07:52:07.608Z,100676.47
2023-05-01T07:54:34.536Z,100629.81
2023-05-01T07:57:02.019Z,100757.53
2023-05-01T07:59:28.649Z,100735.44
2023-05-01T08:01:55.054Z,100737.16
2023-05-01T08:04:23.343Z,100751.16
2023-05-01T08:06:50.976Z,100747.16
2023-05-01T08:09:17.777Z,100735.41
2023-05-01T08:11:44.173Z,100714.78
2023-05-01T08:14:10.953Z,100642.59
2023-05-01T08:16:37.544Z,100638.50
2023-05-01T08:19:04.198Z,100753.50
2023-05-01T08:21:31.249Z,100607.94
2023-05-01T08:23:57.644Z,100732.84
2023-05-01T08:26:24.065Z,100639.69
2023-05-01T08:28:50.856Z,100742.34
2023-05-01T08:31:17.437Z,100733.81
2023-05-01T08:37:06.584Z,100652.69
2023-05-01T08:39:32.994Z,100723.38
2023-05-01T08:42:05.894Z,100740.69
2023-05-01T08:48:58.385Z,100742.88
2023-05-01T08:51:30.057Z,100741.47
2023-05-01T08:54:15.385Z,100712.91
2023-05-01T08:57:07.235Z,100661.25
2023-05-01T09:00:38.009Z,100741.59
2023-05-01T09:03:05.584Z,100702.47
2023-05-01T09:05:33.361Z,100660.41
2023-05-01T09:08:01.888Z,100712.22
2023-05-01T09:10:41.288Z,100708.91
2023-05-01T09:13:37.761Z,100658.22
2023-05-01T09:22:35.450Z,100728.75
2023-05-01T09:25:03.454Z,100587.88
2023-05-01T09:27:35.045Z,100632.38
2023-05-01T09:30:01.552Z,100637.16
2023-05-01T09:32:28.412Z,100679.56
2023-05-01T09:35:18.717Z,100723.94
2023-05-01T09:38:46.016Z,100732.81
2023-05-01T09:48:40.393Z,100697.56
2023-05-01T09:51:59.932Z,100730.66
2023-05-01T09:54:27.144Z,100705.03
2023-05-01T09:57:38.484Z,100727.53
2023-05-01T10:00:10.295Z,100631.69
2023-05-01T10:02:37.529Z,100621.31
2023-05-01T10:05:04.553Z,100574.72
2023-05-01T10:07:31.084Z,100661.97
2023-05-01T10:10:00.746Z,100729.53
2023-05-01T10:15:38.792Z,100648.63
2023-05-01T10:22:04.253Z,100680.31
2023-05-01T10:24:32.408Z,100681.19
2023-05-01T10:27:03.062Z,100700.69
2023-05-01T10:29:30.009Z,100704.78
2023-05-01T10:31:56.568Z,100707.84
2023-05-01T10:34:26.375Z,100632.13
2023-05-01T10:37:07.009Z,100690.34
2023-05-01T10:39:35.496Z,100653.06
2023-05-01T10:42:14.263Z,100702.59
2023-05-01T10:44:42.372Z,100706.28
2023-05-01T10:47:24.190Z,100701.94
2023-05-01T10:50:07.895Z,100636.59
2023-05-01T10:53:15.514Z,100697.53
2023-05-01T10:55:46.709Z,100691.56
2023-05-01T10:58:34.703Z,100681.59
2023-05-01T11:01:45.198Z,100682.00
2023-05-01T11:04:24.540Z,100676.91
2023-05-01T11:07:08.526Z,100687.16
2023-05-01T11:09:49.263Z,100663.94
2023-05-01T11:12:36.651Z,100653.88
2023-05-01T11:15:04.240Z,100641.56
2023-05-01T11:17:40.106Z,100673.03
2023-05-01T11:20:30.450Z,100595.63
2023-05-01T11:22:57.453Z,100603.91
2023-05-01T11:25:27.534Z,100671.47
2023-05-01T11:27:58.705Z,100641.75
2023-05-01T11:30:25.819Z,100651.03
2023-05-01T11:32:52.624Z,100652.03
2023-05-01T11:35:20.016Z,100588.97
2023-05-01T11:37:47.475Z,100569.47
2023-05-01T11:40:27.739Z,100669.94
2023-05-01T11:43:08.735Z,100642.66
2023-05-01T11:45:36.742Z,100676.28
2023-05-01T11:48:04.814Z,100634.63
2023-05-01T11:50:36.781Z,100619.81
2023-05-01T11:53:11.635Z,100601.41
2023-05-01T11:55:41.005Z,100669.16
2023-05-01T11:58:07.573Z,100685.88
2023-05-01T12:00:50.331Z,100681.59
2023-05-01T12:03:16.894Z,100589.31
2023-05-01T12:05:44.906Z,100592.63
2023-05-01T12:08:21.024Z,100683.56
2023-05-01T12:10:56.090Z,100672.59
2023-05-01T12:13:23.921Z,100649.28
2023-05-01T12:15:53.018Z,100675.16
2023-05-01T12:18:21.377Z,100579.69
2023-05-01T12:20:52.764Z,100634.88
2023-05-01T12:23:29.571Z,100634.78
2023-05-01T12:25:56.037Z,100638.59
2023-05-01T12:28:22.605Z,100582.88
2023-05-01T12:30:49.540Z,100659.81
2023-05-01T12:33:20.567Z,100644.34
2023-05-01T12:35:49.592Z,100650.97
2023-05-01T12:38:23.380Z,100628.56
2023-05-01T12:40:55.636Z,100647.72
2023-05-01T12:43:31.309Z,100653.81
2023-05-01T12:45:58.028Z,100643.25
2023-05-01T12:48:25.088Z,100542.50
2023-05-01T12:50:54.860Z,100481.09
2023-05-01T12:53:26.957Z,100542.97
2023-05-01T12:55:55.613Z,100448.34
2023-05-01T12:58:22.721Z,100518.41
2023-05-01T13:00:50.427Z,100467.81
2023-05-01T13:03:23.425Z,100575.81
2023-05-01T13:05:57.715Z,100640.38
2023-05-01T13:08:37.538Z,100647.16
2023-05-01T13:11:11.029Z,100541.09
2023-05-01T13:13:39.843Z,100641.69
2023-05-01T13:16:16.789Z,100656.84
2023-05-01T13:18:59.302Z,100558.47
2023-05-01T13:21:26.682Z,100575.94
2023-05-01T13:23:55.816Z,100487.31
2023-05-01T13:26:40.551Z,100668.19
2023-05-01T13:29:07.147Z,100684.56
2023-05-01T13:31:33.545Z,100632.06
2023-05-01T13:34:00.868Z,100694.97
2023-05-01T13:36:32.198Z,100701.22
2023-05-01T13:38:59.370Z,100701.69
2023-05-01T13:41:27.263Z,100671.44
2023-05-01T13:43:55.430Z,100715.91
2023-05-01T13:46:23.854Z,100722.75
2023-05-01T13:48:50.714Z,100715.03
2023-05-01T13:51:23.080Z,100681.47
2023-05-01T13:53:50.308Z,100695.38
2023-05-01T13:56:16.832Z,100669.78
2023-05-01T13:58:43.208Z,100700.50
2023-05-01T14:01:15.719Z,100705.44
2023-05-01T14:03:43.103Z,100697.88
2023-05-01T14:06:20.168Z,100715.03
2023-05-01T14:08:48.238Z,100713.16
2023-05-01T14:11:15.169Z,100659.44
2023-05-01T14:13:43.777Z,100581.38
2023-05-01T14:16:20.966Z,100678.63
2023-05-01T14:18:48.005Z,100710.00
2023-05-01T14:21:15.988Z,100598.47
2023-05-01T14:23:42.811Z,100686.44
2023-05-01T14:26:11.364Z,100687.94
2023-05-01T14:28:44.999Z,100640.06
2023-05-01T14:31:30.086Z,100599.34
2023-05-01T14:34:02.810Z,100645.28
2023-05-01T14:36:31.543Z,100671.69
2023-05-01T14:38:59.190Z,100683.69
2023-05-01T14:41:25.850Z,100713.88
2023-05-01T14:43:55.167Z,100675.72
2023-05-01T14:46:32.738Z,100698.31
2023-05-01T14:49:01.094Z,100632.50
2023-05-01T14:51:29.194Z,100728.22
2023-05-01T14:53:55.892Z,100623.94
2023-05-01T14:56:23.034Z,100671.78
2023-05-01T14:58:49.627Z,100723.06
2023-05-01T15:01:16.956Z,100593.69
2023-05-01T15:03:43.801Z,100714.41
2023-05-01T15:06:10.557Z,100774.41
2023-05-01T15:08:38.100Z,100662.38
2023-05-01T15:11:04.615Z,100652.94
2023-05-01T15:13:31.794Z,100711.59
2023-05-01T15:15:58.598Z,100750.63
2023-05-01T15:18:25.205Z,100771.94
2023-05-01T15:20:51.637Z,100737.69
2023-05-01T15:23:18.006Z,100760.88
2023-05-01T15:25:44.442Z,100788.94
2023-05-01T15:28:13.393Z,100797.88
2023-05-01T15:30:44.266Z,100732.13
2023-05-01T15:33:10.656Z,100695.53
2023-05-01T15:35:37.191Z,100732.56
2023-05-01T15:38:04.142Z,100710.00
2023-05-01T15:40:30.561Z,100777.53
2023-05-01T15:42:56.915Z,100650.34
2023-05-01T15:45:23.423Z,100711.72
2023-05-01T15:47:49.957Z,100789.19
2023-05-01T15:50:16.416Z,100794.16
2023-05-01T15:52:42.777Z,100780.84
2023-05-01T15:55:09.312Z,100761.66
2023-05-01T15:57:35.695Z,100802.13
2023-05-01T16:05:17.069Z,100838.94
2023-05-01T16:14:49.914Z,100822.78
2023-05-01T16:21:04.841Z,100820.09
2023-05-01T16:23:46.554Z,100652.69
2023-05-01T16:26:13.439Z,100719.13
2023-05-01T16:28:41.449Z,100744.88
2023-05-01T16:31:16.035Z,100809.50
2023-05-01T16:33:53.783Z,100789.00
2023-05-01T16:36:24.549Z,100828.28
2023-05-01T16:42:03.254Z,100814.22
2023-05-01T16:44:30.050Z,100830.97
2023-05-01T16:47:50.836Z,100668.72
2023-05-01T16:50:23.764Z,100744.81
2023-05-01T16:53:09.059Z,100804.38
2023-05-01T16:55:36.009Z,100839.97
2023-05-01T16:58:02.334Z,100818.16
2023-05-01T17:00:29.306Z,100815.66
2023-05-01T17:02:58.810Z,100732.31
2023-05-01T17:05:25.630Z,100842.44
2023-05-01T17:07:52.040Z,100817.25
2023-05-01T17:10:18.430Z,100714.22
2023-05-01T17:12:44.770Z,100855.91
2023-05-01T17:15:11.434Z,100762.63
2023-05-01T17:17:38.029Z,100854.47
2023-05-01T17:20:25.062Z,100732.97
2023-05-01T17:22:51.786Z,100774.47
2023-05-01T17:25:18.295Z,100732.56
2023-05-01T17:27:44.729Z,100859.00
2023-05-01T17:30:11.418Z,100836.50
2023-05-01T17:32:37.985Z,100711.63
2023-05-01T17:35:05.640Z,100778.44
2023-05-01T17:37:32.162Z,100835.22
2023-05-01T17:39:58.815Z,100788.06
2023-05-01T17:42:26.232Z,100775.84
2023-05-01T17:44:52.774Z,100809.97
2023-05-01T17:47:22.193Z,100725.94
2023-05-01T17:49:52.246Z,100733.34
2023-05-01T17:52:18.754Z,100817.59
2023-05-01T17:54:45.193Z,100800.38
2023-05-01T17:57:11.861Z,100809.31
2023-05-01T17:59:38.233Z,100673.06
2023-05-01T18:02:05.060Z,100708.91
2023-05-01T18:04:31.612Z,100824.91
2023-05-01T18:06:58.335Z,100858.59
2023-05-01T18:09:24.770Z,100894.94
2023-05-01T18:11:53.525Z,100745.97
2023-05-01T18:14:20.098Z,100865.88
2023-05-01T18:16:46.773Z,100765.78
2023-05-01T18:19:13.485Z,100811.56
2023-05-01T18:21:40.056Z,100820.66
2023-05-01T18:24:06.935Z,100798.91
2023-05-01T18:26:36.320Z,100871.63
2023-05-01T18:29:06.437Z,100817.34
2023-05-01T18:31:38.215Z,100702.75
2023-05-01T18:34:06.579Z,100803.72
2023-05-01T18:36:41.008Z,100749.34
2023-05-01T18:39:07.569Z,100924.47
2023-05-01T18:41:34.236Z,100755.47
2023-05-01T18:44:01.534Z,100788.25
2023-05-01T18:46:28.759Z,100891.16
2023-05-01T18:48:55.700Z,100938.31
2023-05-01T18:51:24.358Z,100708.25
2023-05-01T18:53:50.866Z,100803.16
2023-05-01T18:56:17.552Z,100821.38
2023-05-01T18:58:44.042Z,100722.53
2023-05-01T19:01:16.464Z,100847.91
2023-05-01T19:03:43.213Z,100802.75
2023-05-01T19:06:10.572Z,100730.31
2023-05-01T19:08:37.269Z,100794.06
2023-05-01T19:11:06.284Z,100954.94
2023-05-01T19:13:33.287Z,100962.91
2023-05-01T19:16:02.605Z,100827.56
2023-05-01T19:18:29.029Z,100869.28
2023-05-01T19:20:55.534Z,100863.47
2023-05-01T19:23:21.978Z,100853.78
2023-05-01T19:25:49.050Z,100928.34
2023-05-01T19:28:15.399Z,100825.66
2023-05-01T19:30:42.163Z,100900.53
2023-05-01T19:33:08.674Z,100795.00
2023-05-01T19:35:35.508Z,100970.59
2023-05-01T19:38:01.978Z,100968.47
2023-05-01T19:40:28.690Z,100886.69
2023-05-01T19:42:55.276Z,100918.41
2023-05-01T19:45:21.788Z,100888.78
2023-05-01T19:47:48.244Z,100906.38
2023-05-01T19:50:20.794Z,100946.84
2023-05-01T19:52:47.215Z,100880.13
2023-05-01T19:55:14.836Z,100805.31
2023-05-01T19:57:41.495Z,100854.69
2023-05-01T20:00:08.825Z,100950.94
2023-05-01T20:02:35.395Z,100895.16
2023-05-01T20:05:02.073Z,100966.09
2023-05-01T20:07:30.339Z,100864.94
2023-05-01T20:09:56.998Z,100879.06
2023-05-01T20:12:23.755Z,100862.97
2023-05-01T20:14:50.237Z,100859.25
2023-05-01T20:17:16.812Z,101002.53
2023-05-01T20:19:43.728Z,100986.38
2023-05-01T20:22:10.885Z,100982.22
2023-05-01T20:24:37.243Z,100978.44
2023-05-01T20:27:04.632Z,101034.13
2023-05-01T20:29:31.253Z,100906.72
2023-05-01T20:32:03.947Z,100948.72
2023-05-01T20:34:31.921Z,101042.72
2023-05-01T20:36:59.467Z,100856.38
2023-05-01T20:39:26.182Z,101030.31
2023-05-01T20:41:52.630Z,100849.69
2023-05-01T20:44:19.180Z,100929.06
2023-05-01T20:46:49.133Z,100879.75
2023-05-01T20:49:17.318Z,100873.63
2023-05-01T20:51:43.774Z,100860.06
2023-05-01T20:54:10.487Z,100944.84
2023-05-01T20:56:37.102Z,100895.78
2023-05-01T20:59:04.307Z,100929.88
2023-05-01T21:01:32.190Z,100873.66
2023-05-01T21:03:59.910Z,100979.19
2023-05-01T21:06:27.281Z,100900.84
2023-05-01T21:08:53.946Z,100830.34
2023-05-01T21:11:20.876Z,101086.53
2023-05-01T21:13:47.503Z,100888.84
2023-05-01T21:16:19.926Z,100839.22
2023-05-01T21:18:49.642Z,100934.78
2023-05-01T21:21:16.144Z,101020.25
2023-05-01T21:23:47.505Z,101037.56
2023-05-01T21:26:14.894Z,100937.53
2023-05-01T21:28:46.568Z,101033.22
2023-05-01T21:31:19.550Z,101077.44
2023-05-01T21:33:46.031Z,100919.31
2023-05-01T21:36:16.925Z,100884.78
2023-05-01T21:38:43.524Z,101123.69
2023-05-01T21:41:12.932Z,101053.53
2023-05-01T21:43:39.453Z,101098.59
2023-05-01T21:46:16.499Z,100992.53
2023-05-01T21:48:43.365Z,100970.03
2023-05-01T21:51:10.157Z,100937.53
2023-05-01T21:53:40.738Z,100859.81
2023-05-01T21:56:07.368Z,101082.00
2023-05-01T21:58:33.861Z,101072.22
2023-05-01T22:01:02.662Z,101034.94
2023-05-01T22:03:29.199Z,101023.03
2023-05-01T22:05:55.632Z,101145.84
2023-05-01T22:08:22.875Z,101107.84
2023-05-01T22:10:49.352Z,100937.69
2023-05-01T22:13:16.146Z,100905.41
2023-05-01T22:15:48.610Z,100993.00
2023-05-01T22:18:19.370Z,100992.50
2023-05-01T22:20:45.865Z,101115.97
2023-05-01T22:23:12.278Z,101067.84
2023-05-01T22:25:38.701Z,101139.59
2023-05-01T22:28:05.975Z,101055.91
2023-05-01T22:30:34.680Z,100940.53
2023-05-01T22:33:01.123Z,101033.28
2023-05-01T22:35:27.632Z,101121.38
2023-05-01T22:37:54.018Z,101079.88
2023-05-01T22:40:20.476Z,101004.06
2023-05-01T22:42:47.335Z,101126.84
2023-05-01T22:45:13.753Z,101109.66
2023-05-01T22:47:40.146Z,101136.44
2023-05-01T22:50:07.324Z,101049.38
2023-05-01T22:52:33.934Z,101084.91
2023-05-01T22:55:00.316Z,101082.41
2023-05-01T22:57:26.836Z,101043.94
2023-05-01T22:59:53.364Z,101045.75
2023-05-01T23:02:19.981Z,101018.78
2023-05-01T23:04:46.514Z,100999.81
2023-05-01T23:07:13.848Z,101080.09
2023-05-01T23:09:40.421Z,101111.50
2023-05-01T23:12:07.107Z,101128.63
2023-05-01T23:14:41.718Z,101049.16
2023-05-01T23:17:08.092Z,101016.44
2023-05-01T23:19:34.477Z,101000.31
2023-05-01T23:22:09.578Z,101195.44
2023-05-01T23:24:43.191Z,101137.00
2023-05-01T23:27:10.342Z,101174.88
2023-05-01T23:29:36.925Z,101019.69
2023-05-01T23:32:03.932Z,101180.34
2023-05-01T23:34:30.548Z,101025.84
2023-05-01T23:36:56.937Z,101002.53
2023-05-01T23:39:23.384Z,101118.25
2023-05-01T23:41:50.522Z,101062.41
2023-05-01T23:44:17.122Z,101000.06
2023-05-01T23:46:43.674Z,101140.03
2023-05-01T23:49:10.147Z,101048.75
2023-05-01T23:51:39.630Z,101058.19
2023-05-01T23:54:06.672Z,101029.09
2023-05-01T23:56:33.204Z,101186.38
2023-05-01T23:58:59.655Z,101163.22
